sensor_id;sensor_type;location;lat;lon;timestamp;temperature;humidity
13409;DHT22;6775;49.574;11.170;2024-03-29T00:00:11;5.90;99.90
13409;DHT22;6775;49.574;11.170;2024-03-29T00:02:39;5.90;99.90
13409;DHT22;6775;49.574;11.170;2024-03-29T00:05:05;5.90;99.90
13409;DHT22;6775;49.574;11.170;2024-03-29T00:07:32;5.80;99.90
13409;DHT22;6775;49.574;11.170;2024-03-29T00:09:59;5.80;99.90
13409;DHT22;6775;49.574;11.170;2024-03-29T00:12:25;5.80;99.90
13409;DHT22;6775;49.574;11.170;2024-03-29T00:14:52;5.80;99.90
13409;DHT22;6775;49.574;11.170;2024-03-29T00:17:20;5.80;99.90
13409;DHT22;6775;49.574;11.170;2024-03-29T00:19:46;5.80;99.90
13409;DHT22;6775;49.574;11.170;2024-03-29T00:22:13;5.90;99.90
13409;DHT22;6775;49.574;11.170;2024-03-29T00:24:39;5.90;99.90
13409;DHT22;6775;49.574;11.170;2024-03-29T00:27:06;5.90;99.90
13409;DHT22;6775;49.574;11.170;2024-03-29T00:29:32;5.90;99.90
13409;DHT22;6775;49.574;11.170;2024-03-29T00:32:00;5.90;99.90
13409;DHT22;6775;49.574;11.170;2024-03-29T00:34:27;5.90;99.90
13409;DHT22;6775;49.574;11.170;2024-03-29T00:36:54;5.90;99.90
13409;DHT22;6775;49.574;11.170;2024-03-29T00:39:20;6.00;99.90
13409;DHT22;6775;49.574;11.170;2024-03-29T00:41:47;6.00;99.90
13409;DHT22;6775;49.574;11.170;2024-03-29T00:44:13;6.00;99.90
13409;DHT22;6775;49.574;11.170;2024-03-29T00:46:40;6.00;99.90
13409;DHT22;6775;49.574;11.170;2024-03-29T00:49:06;6.00;99.90
13409;DHT22;6775;49.574;11.170;2024-03-29T00:51:34;6.00;99.90
13409;DHT22;6775;49.574;11.170;2024-03-29T00:54:01;6.00;99.90
13409;DHT22;6775;49.574;11.170;2024-03-29T00:56:27;6.00;99.90
13409;DHT22;6775;49.574;11.170;2024-03-29T00:58:54;6.00;99.90
13409;DHT22;6775;49.574;11.170;2024-03-29T01:01:20;6.10;99.90
13409;DHT22;6775;49.574;11.170;2024-03-29T01:03:47;6.00;99.90
13409;DHT22;6775;49.574;11.170;2024-03-29T01:06:13;6.00;99.90
13409;DHT22;6775;49.574;11.170;2024-03-29T01:08:41;5.90;99.90
13409;DHT22;6775;49.574;11.170;2024-03-29T01:11:08;5.80;99.90
13409;DHT22;6775;49.574;11.170;2024-03-29T01:13:34;5.70;99.90
13409;DHT22;6775;49.574;11.170;2024-03-29T01:16:00;5.60;99.90
13409;DHT22;6775;49.574;11.170;2024-03-29T01:18:27;5.50;99.90
13409;DHT22;6775;49.574;11.170;2024-03-29T01:20:53;5.40;99.90
13409;DHT22;6775;49.574;11.170;2024-03-29T01:23:20;5.40;99.90
13409;DHT22;6775;49.574;11.170;2024-03-29T01:25:48;5.30;99.90
13409;DHT22;6775;49.574;11.170;2024-03-29T01:28:14;5.30;99.90
13409;DHT22;6775;49.574;11.170;2024-03-29T01:30:41;5.30;99.90
13409;DHT22;6775;49.574;11.170;2024-03-29T01:33:07;5.20;99.90
13409;DHT22;6775;49.574;11.170;2024-03-29T01:35:34;5.20;99.90
13409;DHT22;6775;49.574;11.170;2024-03-29T01:38:00;5.30;99.90
13409;DHT22;6775;49.574;11.170;2024-03-29T01:40:27;5.20;99.90
13409;DHT22;6775;49.574;11.170;2024-03-29T01:42:55;5.30;99.90
13409;DHT22;6775;49.574;11.170;2024-03-29T01:45:21;5.30;99.90
13409;DHT22;6775;49.574;11.170;2024-03-29T01:47:49;5.30;99.90
13409;DHT22;6775;49.574;11.170;2024-03-29T01:50:16;5.30;99.90
13409;DHT22;6775;49.574;11.170;2024-03-29T01:52:44;5.30;99.90
13409;DHT22;6775;49.574;11.170;2024-03-29T01:55:13;5.40;99.90
13409;DHT22;6775;49.574;11.170;2024-03-29T01:57:40;5.40;99.90
13409;DHT22;6775;49.574;11.170;2024-03-29T02:00:10;5.50;99.90
13409;DHT22;6775;49.574;11.170;2024-03-29T02:02:37;5.50;99.90
13409;DHT22;6775;49.574;11.170;2024-03-29T02:05:05;5.50;99.90
13409;DHT22;6775;49.574;11.170;2024-03-29T02:07:33;5.50;99.90
13409;DHT22;6775;49.574;11.170;2024-03-29T02:10:02;5.50;99.90
13409;DHT22;6775;49.574;11.170;2024-03-29T02:12:31;5.40;99.90
13409;DHT22;6775;49.574;11.170;2024-03-29T02:14:59;5.50;99.90
13409;DHT22;6775;49.574;11.170;2024-03-29T02:17:29;5.50;99.90
13409;DHT22;6775;49.574;11.170;2024-03-29T02:19:57;5.40;99.90
13409;DHT22;6775;49.574;11.170;2024-03-29T02:22:25;5.40;99.90
13409;DHT22;6775;49.574;11.170;2024-03-29T02:24:56;5.40;99.90
13409;DHT22;6775;49.574;11.170;2024-03-29T02:27:23;5.50;99.90
13409;DHT22;6775;49.574;11.170;2024-03-29T02:29:50;5.50;99.90
13409;DHT22;6775;49.574;11.170;2024-03-29T02:32:17;5.50;99.90
13409;DHT22;6775;49.574;11.170;2024-03-29T02:34:45;5.70;99.90
13409;DHT22;6775;49.574;11.170;2024-03-29T02:37:12;5.90;99.90
13409;DHT22;6775;49.574;11.170;2024-03-29T02:39:40;6.20;99.90
13409;DHT22;6775;49.574;11.170;2024-03-29T02:42:08;6.40;99.90
13409;DHT22;6775;49.574;11.170;2024-03-29T02:44:36;6.60;99.90
13409;DHT22;6775;49.574;11.170;2024-03-29T02:47:04;6.70;99.90
13409;DHT22;6775;49.574;11.170;2024-03-29T02:49:31;6.80;99.90
13409;DHT22;6775;49.574;11.170;2024-03-29T02:51:58;6.90;99.90
13409;DHT22;6775;49.574;11.170;2024-03-29T02:54:25;6.90;99.90
13409;DHT22;6775;49.574;11.170;2024-03-29T02:56:52;7.00;99.90
13409;DHT22;6775;49.574;11.170;2024-03-29T02:59:20;7.00;99.90
13409;DHT22;6775;49.574;11.170;2024-03-29T03:01:47;7.10;99.90
13409;DHT22;6775;49.574;11.170;2024-03-29T03:04:15;7.10;99.90
13409;DHT22;6775;49.574;11.170;2024-03-29T03:06:41;7.10;99.90
13409;DHT22;6775;49.574;11.170;2024-03-29T03:09:08;7.10;99.90
13409;DHT22;6775;49.574;11.170;2024-03-29T03:11:53;7.20;99.90
13409;DHT22;6775;49.574;11.170;2024-03-29T03:14:22;7.20;99.90
13409;DHT22;6775;49.574;11.170;2024-03-29T03:16:48;7.30;99.90
13409;DHT22;6775;49.574;11.170;2024-03-29T03:19:16;7.30;99.90
13409;DHT22;6775;49.574;11.170;2024-03-29T03:21:42;7.30;99.90
13409;DHT22;6775;49.574;11.170;2024-03-29T03:24:10;7.30;99.90
13409;DHT22;6775;49.574;11.170;2024-03-29T03:26:37;7.30;99.90
13409;DHT22;6775;49.574;11.170;2024-03-29T03:29:05;7.40;99.90
13409;DHT22;6775;49.574;11.170;2024-03-29T03:31:35;7.30;99.90
13409;DHT22;6775;49.574;11.170;2024-03-29T03:34:01;7.40;99.90
13409;DHT22;6775;49.574;11.170;2024-03-29T03:36:29;7.40;99.90
13409;DHT22;6775;49.574;11.170;2024-03-29T03:38:55;7.40;99.90
13409;DHT22;6775;49.574;11.170;2024-03-29T03:41:23;7.40;99.90
13409;DHT22;6775;49.574;11.170;2024-03-29T03:43:49;7.40;99.90
13409;DHT22;6775;49.574;11.170;2024-03-29T03:46:17;7.40;99.90
13409;DHT22;6775;49.574;11.170;2024-03-29T03:48:45;7.50;99.90
13409;DHT22;6775;49.574;11.170;2024-03-29T03:51:13;7.50;99.90
13409;DHT22;6775;49.574;11.170;2024-03-29T03:53:39;7.50;99.90
13409;DHT22;6775;49.574;11.170;2024-03-29T03:56:07;7.50;99.90
13409;DHT22;6775;49.574;11.170;2024-03-29T03:58:33;7.50;99.90
13409;DHT22;6775;49.574;11.170;2024-03-29T04:01:04;7.40;99.90
13409;DHT22;6775;49.574;11.170;2024-03-29T04:03:30;7.40;99.90
13409;DHT22;6775;49.574;11.170;2024-03-29T04:06:03;7.50;99.90
13409;DHT22;6775;49.574;11.170;2024-03-29T04:08:29;7.50;99.90
13409;DHT22;6775;49.574;11.170;2024-03-29T04:10:57;7.40;99.90
13409;DHT22;6775;49.574;11.170;2024-03-29T04:13:26;7.40;99.90
13409;DHT22;6775;49.574;11.170;2024-03-29T04:16:00;7.40;99.90
13409;DHT22;6775;49.574;11.170;2024-03-29T04:18:27;7.50;99.90
13409;DHT22;6775;49.574;11.170;2024-03-29T04:20:56;7.50;99.90
13409;DHT22;6775;49.574;11.170;2024-03-29T04:23:24;7.40;99.90
13409;DHT22;6775;49.574;11.170;2024-03-29T04:25:52;7.50;99.90
13409;DHT22;6775;49.574;11.170;2024-03-29T04:28:19;7.50;99.90
13409;DHT22;6775;49.574;11.170;2024-03-29T04:30:51;7.50;99.90
13409;DHT22;6775;49.574;11.170;2024-03-29T04:33:18;7.50;99.90
13409;DHT22;6775;49.574;11.170;2024-03-29T04:35:54;7.60;99.90
13409;DHT22;6775;49.574;11.170;2024-03-29T04:38:22;7.60;99.90
13409;DHT22;6775;49.574;11.170;2024-03-29T04:40:52;7.50;99.90
13409;DHT22;6775;49.574;11.170;2024-03-29T04:43:22;7.50;99.90
13409;DHT22;6775;49.574;11.170;2024-03-29T04:46:00;7.60;99.90
13409;DHT22;6775;49.574;11.170;2024-03-29T04:48:30;7.60;99.90
13409;DHT22;6775;49.574;11.170;2024-03-29T04:50:58;7.60;99.90
13409;DHT22;6775;49.574;11.170;2024-03-29T04:53:27;7.60;99.90
13409;DHT22;6775;49.574;11.170;2024-03-29T04:55:54;7.60;99.90
13409;DHT22;6775;49.574;11.170;2024-03-29T04:58:22;7.60;99.90
13409;DHT22;6775;49.574;11.170;2024-03-29T05:00:51;7.60;99.90
13409;DHT22;6775;49.574;11.170;2024-03-29T05:03:20;7.60;99.90
13409;DHT22;6775;49.574;11.170;2024-03-29T05:05:50;7.60;99.90
13409;DHT22;6775;49.574;11.170;2024-03-29T05:08:18;7.60;99.90
13409;DHT22;6775;49.574;11.170;2024-03-29T05:10:50;7.60;99.90
13409;DHT22;6775;49.574;11.170;2024-03-29T05:13:18;7.60;99.90
13409;DHT22;6775;49.574;11.170;2024-03-29T05:15:47;7.60;99.90
13409;DHT22;6775;49.574;11.170;2024-03-29T05:18:14;7.60;99.90
13409;DHT22;6775;49.574;11.170;2024-03-29T05:20:42;7.50;99.90
13409;DHT22;6775;49.574;11.170;2024-03-29T05:23:13;7.50;99.90
13409;DHT22;6775;49.574;11.170;2024-03-29T05:25:41;7.50;99.90
13409;DHT22;6775;49.574;11.170;2024-03-29T05:28:10;7.50;99.90
13409;DHT22;6775;49.574;11.170;2024-03-29T05:30:38;7.50;99.90
13409;DHT22;6775;49.574;11.170;2024-03-29T05:33:05;7.60;99.90
13409;DHT22;6775;49.574;11.170;2024-03-29T05:35:33;7.60;99.90
13409;DHT22;6775;49.574;11.170;2024-03-29T05:38:01;7.60;99.90
13409;DHT22;6775;49.574;11.170;2024-03-29T05:40:29;7.60;99.90
13409;DHT22;6775;49.574;11.170;2024-03-29T05:42:56;7.60;99.90
13409;DHT22;6775;49.574;11.170;2024-03-29T05:45:27;7.60;99.90
13409;DHT22;6775;49.574;11.170;2024-03-29T05:47:58;7.70;99.90
13409;DHT22;6775;49.574;11.170;2024-03-29T05:50:26;7.80;99.90
13409;DHT22;6775;49.574;11.170;2024-03-29T05:52:54;7.80;99.90
13409;DHT22;6775;49.574;11.170;2024-03-29T05:55:22;7.90;99.90
13409;DHT22;6775;49.574;11.170;2024-03-29T05:57:50;7.80;99.90
13409;DHT22;6775;49.574;11.170;2024-03-29T06:00:17;7.80;99.90
13409;DHT22;6775;49.574;11.170;2024-03-29T06:02:46;7.80;99.90
13409;DHT22;6775;49.574;11.170;2024-03-29T06:05:14;7.80;99.90
13409;DHT22;6775;49.574;11.170;2024-03-29T06:07:42;7.80;99.90
13409;DHT22;6775;49.574;11.170;2024-03-29T06:10:10;7.80;99.90
13409;DHT22;6775;49.574;11.170;2024-03-29T06:12:37;7.80;99.90
13409;DHT22;6775;49.574;11.170;2024-03-29T06:15:06;7.80;99.90
13409;DHT22;6775;49.574;11.170;2024-03-29T06:17:52;7.90;99.90
13409;DHT22;6775;49.574;11.170;2024-03-29T06:20:20;8.00;99.90
13409;DHT22;6775;49.574;11.170;2024-03-29T06:22:47;8.00;99.90
13409;DHT22;6775;49.574;11.170;2024-03-29T06:25:15;8.00;99.90
13409;DHT22;6775;49.574;11.170;2024-03-29T06:27:42;8.10;99.90
13409;DHT22;6775;49.574;11.170;2024-03-29T06:30:14;8.10;99.90
13409;DHT22;6775;49.574;11.170;2024-03-29T06:32:42;8.10;99.90
13409;DHT22;6775;49.574;11.170;2024-03-29T06:35:12;8.10;99.90
13409;DHT22;6775;49.574;11.170;2024-03-29T06:37:39;8.10;99.90
13409;DHT22;6775;49.574;11.170;2024-03-29T06:40:08;8.10;99.90
13409;DHT22;6775;49.574;11.170;2024-03-29T06:42:37;8.10;99.90
13409;DHT22;6775;49.574;11.170;2024-03-29T06:45:06;8.10;99.90
13409;DHT22;6775;49.574;11.170;2024-03-29T06:47:35;8.20;99.90
13409;DHT22;6775;49.574;11.170;2024-03-29T06:50:02;8.20;99.90
13409;DHT22;6775;49.574;11.170;2024-03-29T06:52:32;8.20;99.90
13409;DHT22;6775;49.574;11.170;2024-03-29T06:55:00;8.20;99.90
13409;DHT22;6775;49.574;11.170;2024-03-29T06:57:27;8.20;99.90
13409;DHT22;6775;49.574;11.170;2024-03-29T06:59:57;8.20;99.90
13409;DHT22;6775;49.574;11.170;2024-03-29T07:02:24;8.20;99.90
13409;DHT22;6775;49.574;11.170;2024-03-29T07:04:52;8.20;99.90
13409;DHT22;6775;49.574;11.170;2024-03-29T07:07:19;8.20;99.90
13409;DHT22;6775;49.574;11.170;2024-03-29T07:09:48;8.20;99.90
13409;DHT22;6775;49.574;11.170;2024-03-29T07:12:16;8.20;99.90
13409;DHT22;6775;49.574;11.170;2024-03-29T07:14:44;8.30;99.90
13409;DHT22;6775;49.574;11.170;2024-03-29T07:17:11;8.40;99.90
13409;DHT22;6775;49.574;11.170;2024-03-29T07:19:39;8.50;99.90
13409;DHT22;6775;49.574;11.170;2024-03-29T07:22:06;8.70;99.90
13409;DHT22;6775;49.574;11.170;2024-03-29T07:24:34;8.90;99.90
13409;DHT22;6775;49.574;11.170;2024-03-29T07:27:03;9.10;99.90
13409;DHT22;6775;49.574;11.170;2024-03-29T07:29:30;9.20;99.90
13409;DHT22;6775;49.574;11.170;2024-03-29T07:31:59;9.30;99.90
13409;DHT22;6775;49.574;11.170;2024-03-29T07:34:27;9.50;99.90
13409;DHT22;6775;49.574;11.170;2024-03-29T07:36:55;9.60;99.90
13409;DHT22;6775;49.574;11.170;2024-03-29T07:39:22;9.90;99.90
13409;DHT22;6775;49.574;11.170;2024-03-29T07:41:50;10.10;99.90
13409;DHT22;6775;49.574;11.170;2024-03-29T07:44:19;10.30;99.90
13409;DHT22;6775;49.574;11.170;2024-03-29T07:46:46;10.60;99.90
13409;DHT22;6775;49.574;11.170;2024-03-29T07:49:14;10.80;99.90
13409;DHT22;6775;49.574;11.170;2024-03-29T07:51:47;11.00;99.90
13409;DHT22;6775;49.574;11.170;2024-03-29T07:54:14;11.10;99.90
13409;DHT22;6775;49.574;11.170;2024-03-29T07:56:42;11.10;99.90
13409;DHT22;6775;49.574;11.170;2024-03-29T07:59:09;11.20;99.90
13409;DHT22;6775;49.574;11.170;2024-03-29T08:01:38;11.20;99.90
13409;DHT22;6775;49.574;11.170;2024-03-29T08:04:07;11.30;99.90
13409;DHT22;6775;49.574;11.170;2024-03-29T08:06:35;11.20;99.90
13409;DHT22;6775;49.574;11.170;2024-03-29T08:09:02;11.20;99.90
13409;DHT22;6775;49.574;11.170;2024-03-29T08:11:30;11.10;99.60
13409;DHT22;6775;49.574;11.170;2024-03-29T08:13:57;11.10;99.90
13409;DHT22;6775;49.574;11.170;2024-03-29T08:16:25;11.20;98.70
13409;DHT22;6775;49.574;11.170;2024-03-29T08:18:54;11.20;99.90
13409;DHT22;6775;49.574;11.170;2024-03-29T08:21:21;11.30;98.00
13409;DHT22;6775;49.574;11.170;2024-03-29T08:23:49;11.60;99.90
13409;DHT22;6775;49.574;11.170;2024-03-29T08:26:17;11.70;98.90
13409;DHT22;6775;49.574;11.170;2024-03-29T08:28:45;11.70;98.70
13409;DHT22;6775;49.574;11.170;2024-03-29T08:31:13;11.90;99.90
13409;DHT22;6775;49.574;11.170;2024-03-29T08:33:40;12.10;98.70
13409;DHT22;6775;49.574;11.170;2024-03-29T08:36:10;12.20;98.50
13409;DHT22;6775;49.574;11.170;2024-03-29T08:38:38;12.10;97.30
13409;DHT22;6775;49.574;11.170;2024-03-29T08:41:08;12.00;97.70
13409;DHT22;6775;49.574;11.170;2024-03-29T08:43:36;11.80;98.10
13409;DHT22;6775;49.574;11.170;2024-03-29T08:46:04;11.80;98.60
13409;DHT22;6775;49.574;11.170;2024-03-29T08:48:31;11.70;99.10
13409;DHT22;6775;49.574;11.170;2024-03-29T08:50:59;11.60;99.30
13409;DHT22;6775;49.574;11.170;2024-03-29T08:53:27;11.60;99.90
13409;DHT22;6775;49.574;11.170;2024-03-29T08:55:55;11.60;99.90
13409;DHT22;6775;49.574;11.170;2024-03-29T08:58:22;11.50;99.90
13409;DHT22;6775;49.574;11.170;2024-03-29T09:00:54;11.50;99.80
13409;DHT22;6775;49.574;11.170;2024-03-29T09:12:21;11.30;99.90
13409;DHT22;6775;49.574;11.170;2024-03-29T09:14:49;11.20;99.90
13409;DHT22;6775;49.574;11.170;2024-03-29T09:17:16;11.20;99.90
13409;DHT22;6775;49.574;11.170;2024-03-29T09:19:44;11.20;99.90
13409;DHT22;6775;49.574;11.170;2024-03-29T09:22:12;11.10;99.90
13409;DHT22;6775;49.574;11.170;2024-03-29T09:24:39;10.90;99.90
13409;DHT22;6775;49.574;11.170;2024-03-29T09:27:07;10.80;99.90
13409;DHT22;6775;49.574;11.170;2024-03-29T09:29:36;10.60;99.90
13409;DHT22;6775;49.574;11.170;2024-03-29T09:32:04;10.30;99.90
13409;DHT22;6775;49.574;11.170;2024-03-29T09:34:32;10.10;99.90
13409;DHT22;6775;49.574;11.170;2024-03-29T09:36:59;9.90;99.90
13409;DHT22;6775;49.574;11.170;2024-03-29T09:39:27;9.70;99.90
13409;DHT22;6775;49.574;11.170;2024-03-29T09:41:55;9.70;99.90
13409;DHT22;6775;49.574;11.170;2024-03-29T09:44:30;9.60;99.90
13409;DHT22;6775;49.574;11.170;2024-03-29T09:47:03;9.50;99.90
13409;DHT22;6775;49.574;11.170;2024-03-29T09:49:31;9.50;99.90
13409;DHT22;6775;49.574;11.170;2024-03-29T09:52:00;9.50;99.90
13409;DHT22;6775;49.574;11.170;2024-03-29T09:54:29;9.50;99.90
13409;DHT22;6775;49.574;11.170;2024-03-29T09:56:57;9.50;99.90
13409;DHT22;6775;49.574;11.170;2024-03-29T09:59:25;9.50;99.90
13409;DHT22;6775;49.574;11.170;2024-03-29T10:01:55;9.40;99.90
13409;DHT22;6775;49.574;11.170;2024-03-29T10:04:25;9.50;99.90
13409;DHT22;6775;49.574;11.170;2024-03-29T10:06:55;9.40;99.90
13409;DHT22;6775;49.574;11.170;2024-03-29T10:09:23;9.50;99.90
13409;DHT22;6775;49.574;11.170;2024-03-29T10:11:55;9.50;99.90
13409;DHT22;6775;49.574;11.170;2024-03-29T10:14:22;9.50;99.90
13409;DHT22;6775;49.574;11.170;2024-03-29T10:16:51;9.90;99.90
13409;DHT22;6775;49.574;11.170;2024-03-29T10:19:20;9.70;99.90
13409;DHT22;6775;49.574;11.170;2024-03-29T10:21:49;9.80;99.90
13409;DHT22;6775;49.574;11.170;2024-03-29T10:24:17;9.90;99.90
13409;DHT22;6775;49.574;11.170;2024-03-29T10:26:46;9.90;99.90
13409;DHT22;6775;49.574;11.170;2024-03-29T10:29:14;10.00;99.90
13409;DHT22;6775;49.574;11.170;2024-03-29T10:31:42;10.00;99.90
13409;DHT22;6775;49.574;11.170;2024-03-29T10:34:10;10.00;99.90
13409;DHT22;6775;49.574;11.170;2024-03-29T10:36:37;9.90;99.90
13409;DHT22;6775;49.574;11.170;2024-03-29T10:39:11;10.00;99.90
13409;DHT22;6775;49.574;11.170;2024-03-29T10:41:40;10.10;99.90
13409;DHT22;6775;49.574;11.170;2024-03-29T10:44:09;10.20;99.90
13409;DHT22;6775;49.574;11.170;2024-03-29T10:46:39;10.40;99.90
13409;DHT22;6775;49.574;11.170;2024-03-29T10:49:08;10.70;99.90
13409;DHT22;6775;49.574;11.170;2024-03-29T10:51:38;10.90;99.90
13409;DHT22;6775;49.574;11.170;2024-03-29T10:54:09;10.90;99.90
13409;DHT22;6775;49.574;11.170;2024-03-29T10:56:40;11.10;99.90
13409;DHT22;6775;49.574;11.170;2024-03-29T10:59:20;11.10;99.90
13409;DHT22;6775;49.574;11.170;2024-03-29T11:01:55;11.10;99.90
13409;DHT22;6775;49.574;11.170;2024-03-29T11:04:31;11.10;99.90
13409;DHT22;6775;49.574;11.170;2024-03-29T11:07:07;11.10;99.90
13409;DHT22;6775;49.574;11.170;2024-03-29T11:09:43;11.10;99.90
13409;DHT22;6775;49.574;11.170;2024-03-29T11:12:13;11.10;99.90
13409;DHT22;6775;49.574;11.170;2024-03-29T11:14:45;11.10;99.90
13409;DHT22;6775;49.574;11.170;2024-03-29T11:17:15;11.10;99.90
13409;DHT22;6775;49.574;11.170;2024-03-29T11:19:43;11.10;99.90
13409;DHT22;6775;49.574;11.170;2024-03-29T11:22:11;11.00;99.90
13409;DHT22;6775;49.574;11.170;2024-03-29T11:24:39;11.00;99.90
13409;DHT22;6775;49.574;11.170;2024-03-29T11:27:09;11.00;99.90
13409;DHT22;6775;49.574;11.170;2024-03-29T11:29:41;10.90;99.90
13409;DHT22;6775;49.574;11.170;2024-03-29T11:32:11;10.90;99.90
13409;DHT22;6775;49.574;11.170;2024-03-29T11:34:44;10.80;99.90
13409;DHT22;6775;49.574;11.170;2024-03-29T11:37:12;10.70;99.90
13409;DHT22;6775;49.574;11.170;2024-03-29T11:39:47;10.70;99.90
13409;DHT22;6775;49.574;11.170;2024-03-29T11:42:16;10.70;99.90
13409;DHT22;6775;49.574;11.170;2024-03-29T11:44:44;10.70;99.90
13409;DHT22;6775;49.574;11.170;2024-03-29T11:47:13;10.80;99.90
13409;DHT22;6775;49.574;11.170;2024-03-29T11:49:44;10.90;99.90
13409;DHT22;6775;49.574;11.170;2024-03-29T11:52:11;11.00;99.90
13409;DHT22;6775;49.574;11.170;2024-03-29T11:54:39;11.10;99.90
13409;DHT22;6775;49.574;11.170;2024-03-29T11:57:07;11.20;99.90
13409;DHT22;6775;49.574;11.170;2024-03-29T11:59:36;11.30;99.90
13409;DHT22;6775;49.574;11.170;2024-03-29T12:02:05;11.40;99.90
13409;DHT22;6775;49.574;11.170;2024-03-29T12:04:40;11.40;99.90
13409;DHT22;6775;49.574;11.170;2024-03-29T12:07:07;11.40;99.90
13409;DHT22;6775;49.574;11.170;2024-03-29T12:09:35;11.40;99.90
13409;DHT22;6775;49.574;11.170;2024-03-29T12:12:05;11.40;99.90
13409;DHT22;6775;49.574;11.170;2024-03-29T12:14:37;11.40;99.90
13409;DHT22;6775;49.574;11.170;2024-03-29T12:17:09;11.40;99.90
13409;DHT22;6775;49.574;11.170;2024-03-29T12:19:37;11.40;99.90
13409;DHT22;6775;49.574;11.170;2024-03-29T12:22:08;11.40;99.90
13409;DHT22;6775;49.574;11.170;2024-03-29T12:24:36;11.50;99.90
13409;DHT22;6775;49.574;11.170;2024-03-29T12:27:04;11.50;99.90
13409;DHT22;6775;49.574;11.170;2024-03-29T12:29:33;11.60;99.90
13409;DHT22;6775;49.574;11.170;2024-03-29T12:32:03;11.80;99.90
13409;DHT22;6775;49.574;11.170;2024-03-29T12:34:31;11.90;99.90
13409;DHT22;6775;49.574;11.170;2024-03-29T12:36:59;12.10;99.90
13409;DHT22;6775;49.574;11.170;2024-03-29T12:39:30;12.30;99.90
13409;DHT22;6775;49.574;11.170;2024-03-29T12:41:59;12.70;99.90
13409;DHT22;6775;49.574;11.170;2024-03-29T12:44:27;13.20;99.90
13409;DHT22;6775;49.574;11.170;2024-03-29T12:46:56;13.90;99.90
13409;DHT22;6775;49.574;11.170;2024-03-29T12:49:26;14.60;99.90
13409;DHT22;6775;49.574;11.170;2024-03-29T12:51:56;15.00;99.90
13409;DHT22;6775;49.574;11.170;2024-03-29T12:54:23;15.40;99.90
13409;DHT22;6775;49.574;11.170;2024-03-29T12:56:53;15.80;99.90
13409;DHT22;6775;49.574;11.170;2024-03-29T12:59:20;15.80;99.90
13409;DHT22;6775;49.574;11.170;2024-03-29T13:01:48;15.90;99.90
13409;DHT22;6775;49.574;11.170;2024-03-29T13:04:15;15.90;99.90
13409;DHT22;6775;49.574;11.170;2024-03-29T13:06:44;16.10;99.90
13409;DHT22;6775;49.574;11.170;2024-03-29T13:09:12;16.30;99.90
13409;DHT22;6775;49.574;11.170;2024-03-29T13:11:40;16.30;99.90
13409;DHT22;6775;49.574;11.170;2024-03-29T13:14:07;16.20;99.90
13409;DHT22;6775;49.574;11.170;2024-03-29T13:16:35;16.00;99.90
13409;DHT22;6775;49.574;11.170;2024-03-29T13:19:02;15.70;99.90
13409;DHT22;6775;49.574;11.170;2024-03-29T13:21:30;15.50;99.90
13409;DHT22;6775;49.574;11.170;2024-03-29T13:23:59;15.40;99.90
13409;DHT22;6775;49.574;11.170;2024-03-29T13:26:27;15.30;99.90
13409;DHT22;6775;49.574;11.170;2024-03-29T13:28:55;15.10;99.90
13409;DHT22;6775;49.574;11.170;2024-03-29T13:31:23;14.90;99.90
13409;DHT22;6775;49.574;11.170;2024-03-29T13:33:54;14.70;99.90
13409;DHT22;6775;49.574;11.170;2024-03-29T13:36:29;14.60;99.90
13409;DHT22;6775;49.574;11.170;2024-03-29T13:38:58;14.50;99.90
13409;DHT22;6775;49.574;11.170;2024-03-29T13:41:26;14.50;99.90
13409;DHT22;6775;49.574;11.170;2024-03-29T13:43:53;14.50;99.90
13409;DHT22;6775;49.574;11.170;2024-03-29T13:46:21;14.50;99.90
13409;DHT22;6775;49.574;11.170;2024-03-29T13:48:48;14.70;99.90
13409;DHT22;6775;49.574;11.170;2024-03-29T13:51:16;14.80;99.90
13409;DHT22;6775;49.574;11.170;2024-03-29T13:53:43;15.10;99.90
13409;DHT22;6775;49.574;11.170;2024-03-29T13:56:12;15.30;99.90
13409;DHT22;6775;49.574;11.170;2024-03-29T13:58:40;15.50;99.90
13409;DHT22;6775;49.574;11.170;2024-03-29T14:01:07;15.70;99.90
13409;DHT22;6775;49.574;11.170;2024-03-29T14:03:35;15.80;99.90
13409;DHT22;6775;49.574;11.170;2024-03-29T14:06:02;15.90;99.90
13409;DHT22;6775;49.574;11.170;2024-03-29T14:08:31;16.10;99.90
13409;DHT22;6775;49.574;11.170;2024-03-29T14:10:58;16.20;99.90
13409;DHT22;6775;49.574;11.170;2024-03-29T14:13:28;16.40;99.90
13409;DHT22;6775;49.574;11.170;2024-03-29T14:15:55;16.50;99.90
13409;DHT22;6775;49.574;11.170;2024-03-29T14:18:23;16.50;99.90
13409;DHT22;6775;49.574;11.170;2024-03-29T14:20:50;16.40;99.90
13409;DHT22;6775;49.574;11.170;2024-03-29T14:23:18;16.20;99.90
13409;DHT22;6775;49.574;11.170;2024-03-29T14:25:48;16.10;99.90
13409;DHT22;6775;49.574;11.170;2024-03-29T14:28:16;15.90;99.90
13409;DHT22;6775;49.574;11.170;2024-03-29T14:30:45;15.90;99.90
13409;DHT22;6775;49.574;11.170;2024-03-29T14:33:12;15.90;99.90
13409;DHT22;6775;49.574;11.170;2024-03-29T14:35:40;15.90;99.90
13409;DHT22;6775;49.574;11.170;2024-03-29T14:38:07;15.90;99.90
13409;DHT22;6775;49.574;11.170;2024-03-29T14:40:35;15.90;99.90
13409;DHT22;6775;49.574;11.170;2024-03-29T14:43:04;15.90;99.90
13409;DHT22;6775;49.574;11.170;2024-03-29T14:45:33;15.90;99.90
13409;DHT22;6775;49.574;11.170;2024-03-29T14:48:02;15.90;99.90
13409;DHT22;6775;49.574;11.170;2024-03-29T14:50:29;16.10;99.90
13409;DHT22;6775;49.574;11.170;2024-03-29T14:52:57;16.30;99.90
13409;DHT22;6775;49.574;11.170;2024-03-29T14:55:24;16.50;99.90
13409;DHT22;6775;49.574;11.170;2024-03-29T14:57:52;16.60;99.90
13409;DHT22;6775;49.574;11.170;2024-03-29T15:00:20;16.70;99.90
13409;DHT22;6775;49.574;11.170;2024-03-29T15:02:50;16.90;99.90
13409;DHT22;6775;49.574;11.170;2024-03-29T15:05:19;17.00;99.90
13409;DHT22;6775;49.574;11.170;2024-03-29T15:07:47;17.10;99.90
13409;DHT22;6775;49.574;11.170;2024-03-29T15:10:14;17.20;99.90
13409;DHT22;6775;49.574;11.170;2024-03-29T15:12:42;17.20;99.90
13409;DHT22;6775;49.574;11.170;2024-03-29T15:15:12;17.30;99.90
13409;DHT22;6775;49.574;11.170;2024-03-29T15:17:39;17.30;99.90
13409;DHT22;6775;49.574;11.170;2024-03-29T15:20:08;17.30;99.90
13409;DHT22;6775;49.574;11.170;2024-03-29T15:22:41;17.20;99.90
13409;DHT22;6775;49.574;11.170;2024-03-29T15:25:10;17.10;99.90
13409;DHT22;6775;49.574;11.170;2024-03-29T15:27:37;17.00;99.90
13409;DHT22;6775;49.574;11.170;2024-03-29T15:30:22;16.90;99.90
13409;DHT22;6775;49.574;11.170;2024-03-29T15:32:50;16.80;99.90
13409;DHT22;6775;49.574;11.170;2024-03-29T15:35:17;16.70;99.90
13409;DHT22;6775;49.574;11.170;2024-03-29T15:37:45;16.60;99.90
13409;DHT22;6775;49.574;11.170;2024-03-29T15:40:14;16.50;99.90
13409;DHT22;6775;49.574;11.170;2024-03-29T15:42:41;16.50;99.90
13409;DHT22;6775;49.574;11.170;2024-03-29T15:45:09;16.50;99.90
13409;DHT22;6775;49.574;11.170;2024-03-29T15:47:37;16.20;99.90
13409;DHT22;6775;49.574;11.170;2024-03-29T15:50:05;16.10;99.90
13409;DHT22;6775;49.574;11.170;2024-03-29T15:52:33;16.00;99.90
13409;DHT22;6775;49.574;11.170;2024-03-29T15:55:03;16.00;99.90